sensor_id;sensor_type;location;lat;lon;timestamp;P1;durP1;ratioP1;P2;durP2;ratioP2
74213;SDS011;62576;55.694;37.494;2023-02-15T00:00:39;3.33;;;0.90;;
74213;SDS011;62576;55.694;37.494;2023-02-15T00:03:11;4.60;;;0.90;;
74213;SDS011;62576;55.694;37.494;2023-02-15T00:05:41;4.57;;;1.10;;
74213;SDS011;62576;55.694;37.494;2023-02-15T00:08:11;3.38;;;0.82;;
74213;SDS011;62576;55.694;37.494;2023-02-15T00:10:41;4.03;;;1.10;;
74213;SDS011;62576;55.694;37.494;2023-02-15T00:13:11;4.82;;;0.80;;
74213;SDS011;62576;55.694;37.494;2023-02-15T00:15:41;3.05;;;0.95;;
74213;SDS011;62576;55.694;37.494;2023-02-15T00:18:12;2.47;;;0.88;;
74213;SDS011;62576;55.694;37.494;2023-02-15T00:20:43;1.63;;;0.70;;
74213;SDS011;62576;55.694;37.494;2023-02-15T00:23:13;3.20;;;1.00;;
74213;SDS011;62576;55.694;37.494;2023-02-15T00:25:43;1.95;;;0.75;;
74213;SDS011;62576;55.694;37.494;2023-02-15T00:28:13;4.18;;;1.23;;
74213;SDS011;62576;55.694;37.494;2023-02-15T00:30:43;4.05;;;1.10;;
74213;SDS011;62576;55.694;37.494;2023-02-15T00:33:15;6.65;;;0.93;;
74213;SDS011;62576;55.694;37.494;2023-02-15T00:35:45;1.98;;;0.80;;
74213;SDS011;62576;55.694;37.494;2023-02-15T00:38:15;3.83;;;1.30;;
74213;SDS011;62576;55.694;37.494;2023-02-15T00:40:51;3.00;;;0.85;;
74213;SDS011;62576;55.694;37.494;2023-02-15T00:43:22;5.70;;;1.00;;
74213;SDS011;62576;55.694;37.494;2023-02-15T00:45:59;3.15;;;1.00;;
74213;SDS011;62576;55.694;37.494;2023-02-15T00:48:32;3.17;;;1.42;;
74213;SDS011;62576;55.694;37.494;2023-02-15T00:51:02;5.93;;;1.10;;
74213;SDS011;62576;55.694;37.494;2023-02-15T00:53:32;3.60;;;1.30;;
74213;SDS011;62576;55.694;37.494;2023-02-15T00:56:02;3.72;;;0.90;;
74213;SDS011;62576;55.694;37.494;2023-02-15T00:58:32;5.85;;;1.00;;
74213;SDS011;62576;55.694;37.494;2023-02-15T01:01:02;3.95;;;1.10;;
74213;SDS011;62576;55.694;37.494;2023-02-15T01:03:36;3.58;;;0.75;;
74213;SDS011;62576;55.694;37.494;2023-02-15T01:06:10;4.15;;;1.10;;
74213;SDS011;62576;55.694;37.494;2023-02-15T01:08:43;6.38;;;0.90;;
74213;SDS011;62576;55.694;37.494;2023-02-15T01:11:15;5.88;;;1.20;;
74213;SDS011;62576;55.694;37.494;2023-02-15T01:13:50;1.92;;;0.73;;
74213;SDS011;62576;55.694;37.494;2023-02-15T01:16:21;3.35;;;1.10;;
74213;SDS011;62576;55.694;37.494;2023-02-15T01:18:53;3.88;;;0.90;;
74213;SDS011;62576;55.694;37.494;2023-02-15T01:21:24;3.15;;;0.85;;
74213;SDS011;62576;55.694;37.494;2023-02-15T01:23:55;3.72;;;1.00;;
74213;SDS011;62576;55.694;37.494;2023-02-15T01:26:25;2.17;;;0.85;;
74213;SDS011;62576;55.694;37.494;2023-02-15T01:28:55;4.25;;;1.10;;
74213;SDS011;62576;55.694;37.494;2023-02-15T01:31:26;2.78;;;1.02;;
74213;SDS011;62576;55.694;37.494;2023-02-15T01:33:57;3.03;;;1.00;;
74213;SDS011;62576;55.694;37.494;2023-02-15T01:36:27;3.95;;;0.75;;
74213;SDS011;62576;55.694;37.494;2023-02-15T01:38:58;3.38;;;1.00;;
74213;SDS011;62576;55.694;37.494;2023-02-15T01:41:29;4.35;;;1.15;;
74213;SDS011;62576;55.694;37.494;2023-02-15T01:43:59;3.67;;;1.15;;
74213;SDS011;62576;55.694;37.494;2023-02-15T01:46:31;5.60;;;1.00;;
74213;SDS011;62576;55.694;37.494;2023-02-15T01:49:08;3.97;;;1.35;;
74213;SDS011;62576;55.694;37.494;2023-02-15T01:51:41;4.20;;;1.00;;
74213;SDS011;62576;55.694;37.494;2023-02-15T01:54:15;2.13;;;0.80;;
74213;SDS011;62576;55.694;37.494;2023-02-15T01:56:53;5.28;;;1.10;;
74213;SDS011;62576;55.694;37.494;2023-02-15T01:59:29;3.78;;;1.40;;
74213;SDS011;62576;55.694;37.494;2023-02-15T02:02:03;4.63;;;0.98;;
74213;SDS011;62576;55.694;37.494;2023-02-15T02:04:38;4.65;;;1.10;;
74213;SDS011;62576;55.694;37.494;2023-02-15T02:07:11;1.85;;;0.77;;
74213;SDS011;62576;55.694;37.494;2023-02-15T02:09:43;5.07;;;1.10;;
74213;SDS011;62576;55.694;37.494;2023-02-15T02:12:14;3.83;;;1.00;;
74213;SDS011;62576;55.694;37.494;2023-02-15T02:14:45;7.75;;;1.17;;
74213;SDS011;62576;55.694;37.494;2023-02-15T02:17:17;5.75;;;1.52;;
74213;SDS011;62576;55.694;37.494;2023-02-15T02:29:05;3.65;;;1.00;;
74213;SDS011;62576;55.694;37.494;2023-02-15T02:32:13;2.13;;;0.90;;
74213;SDS011;62576;55.694;37.494;2023-02-15T02:35:07;4.35;;;0.90;;
74213;SDS011;62576;55.694;37.494;2023-02-15T02:37:43;3.58;;;0.80;;
74213;SDS011;62576;55.694;37.494;2023-02-15T02:40:20;4.05;;;1.17;;
74213;SDS011;62576;55.694;37.494;2023-02-15T02:42:59;2.97;;;0.88;;
74213;SDS011;62576;55.694;37.494;2023-02-15T02:45:33;3.28;;;0.98;;
74213;SDS011;62576;55.694;37.494;2023-02-15T02:48:12;4.32;;;1.05;;
74213;SDS011;62576;55.694;37.494;2023-02-15T02:50:46;4.53;;;0.95;;
74213;SDS011;62576;55.694;37.494;2023-02-15T02:53:16;2.65;;;1.10;;
74213;SDS011;62576;55.694;37.494;2023-02-15T02:55:47;5.78;;;1.20;;
74213;SDS011;62576;55.694;37.494;2023-02-15T02:58:21;1.48;;;0.60;;
74213;SDS011;62576;55.694;37.494;2023-02-15T03:00:56;4.93;;;1.30;;
74213;SDS011;62576;55.694;37.494;2023-02-15T03:03:30;1.95;;;0.98;;
74213;SDS011;62576;55.694;37.494;2023-02-15T03:06:07;2.95;;;1.00;;
74213;SDS011;62576;55.694;37.494;2023-02-15T03:08:42;4.50;;;1.00;;
74213;SDS011;62576;55.694;37.494;2023-02-15T03:11:17;7.80;;;1.55;;
74213;SDS011;62576;55.694;37.494;2023-02-15T03:13:47;5.35;;;1.48;;
74213;SDS011;62576;55.694;37.494;2023-02-15T03:16:18;6.18;;;1.38;;
74213;SDS011;62576;55.694;37.494;2023-02-15T03:18:57;4.20;;;1.20;;
74213;SDS011;62576;55.694;37.494;2023-02-15T03:21:34;4.68;;;1.25;;
74213;SDS011;62576;55.694;37.494;2023-02-15T03:24:09;5.80;;;1.48;;
74213;SDS011;62576;55.694;37.494;2023-02-15T03:26:43;3.83;;;1.23;;
74213;SDS011;62576;55.694;37.494;2023-02-15T03:29:16;3.50;;;1.20;;
74213;SDS011;62576;55.694;37.494;2023-02-15T03:31:49;5.50;;;1.25;;
74213;SDS011;62576;55.694;37.494;2023-02-15T03:34:24;6.05;;;1.55;;
74213;SDS011;62576;55.694;37.494;2023-02-15T03:36:58;4.03;;;1.20;;
74213;SDS011;62576;55.694;37.494;2023-02-15T03:39:36;5.38;;;1.38;;
74213;SDS011;62576;55.694;37.494;2023-02-15T03:42:13;4.50;;;1.02;;
74213;SDS011;62576;55.694;37.494;2023-02-15T03:44:51;5.93;;;1.05;;
74213;SDS011;62576;55.694;37.494;2023-02-15T03:47:27;5.57;;;1.30;;
74213;SDS011;62576;55.694;37.494;2023-02-15T03:52:54;5.07;;;0.93;;
74213;SDS011;62576;55.694;37.494;2023-02-15T03:55:27;6.15;;;1.35;;
74213;SDS011;62576;55.694;37.494;2023-02-15T03:57:57;2.38;;;0.98;;
74213;SDS011;62576;55.694;37.494;2023-02-15T04:00:43;2.92;;;1.27;;
74213;SDS011;62576;55.694;37.494;2023-02-15T04:03:38;4.00;;;0.98;;
74213;SDS011;62576;55.694;37.494;2023-02-15T04:06:10;2.55;;;0.80;;
74213;SDS011;62576;55.694;37.494;2023-02-15T04:08:42;4.70;;;1.25;;
74213;SDS011;62576;55.694;37.494;2023-02-15T04:11:29;3.90;;;1.40;;
74213;SDS011;62576;55.694;37.494;2023-02-15T04:14:02;3.70;;;0.90;;
74213;SDS011;62576;55.694;37.494;2023-02-15T04:16:49;5.10;;;1.52;;
74213;SDS011;62576;55.694;37.494;2023-02-15T04:19:18;4.95;;;1.30;;
74213;SDS011;62576;55.694;37.494;2023-02-15T04:22:06;1.30;;;0.90;;
74213;SDS011;62576;55.694;37.494;2023-02-15T04:24:58;4.63;;;1.35;;
74213;SDS011;62576;55.694;37.494;2023-02-15T04:27:41;4.97;;;1.25;;
74213;SDS011;62576;55.694;37.494;2023-02-15T04:30:14;4.90;;;1.20;;
74213;SDS011;62576;55.694;37.494;2023-02-15T04:32:45;3.03;;;0.85;;
74213;SDS011;62576;55.694;37.494;2023-02-15T04:35:15;4.32;;;1.20;;
74213;SDS011;62576;55.694;37.494;2023-02-15T04:37:45;5.20;;;1.20;;
74213;SDS011;62576;55.694;37.494;2023-02-15T04:40:17;6.13;;;1.30;;
74213;SDS011;62576;55.694;37.494;2023-02-15T04:42:47;4.13;;;1.38;;
74213;SDS011;62576;55.694;37.494;2023-02-15T04:45:17;5.32;;;1.20;;
74213;SDS011;62576;55.694;37.494;2023-02-15T04:47:47;4.03;;;0.90;;
74213;SDS011;62576;55.694;37.494;2023-02-15T04:50:18;6.30;;;1.83;;
74213;SDS011;62576;55.694;37.494;2023-02-15T04:52:48;4.25;;;1.30;;
74213;SDS011;62576;55.694;37.494;2023-02-15T04:55:20;1.65;;;0.90;;
74213;SDS011;62576;55.694;37.494;2023-02-15T04:57:50;3.17;;;1.05;;
74213;SDS011;62576;55.694;37.494;2023-02-15T05:00:21;6.07;;;1.55;;
74213;SDS011;62576;55.694;37.494;2023-02-15T05:02:51;5.78;;;1.60;;
74213;SDS011;62576;55.694;37.494;2023-02-15T05:05:21;6.70;;;1.60;;
74213;SDS011;62576;55.694;37.494;2023-02-15T05:07:51;6.18;;;1.95;;
74213;SDS011;62576;55.694;37.494;2023-02-15T05:10:23;5.93;;;1.52;;
74213;SDS011;62576;55.694;37.494;2023-02-15T05:12:54;4.80;;;1.60;;
74213;SDS011;62576;55.694;37.494;2023-02-15T05:15:24;5.53;;;1.40;;
74213;SDS011;62576;55.694;37.494;2023-02-15T05:17:54;3.58;;;1.50;;
74213;SDS011;62576;55.694;37.494;2023-02-15T05:20:24;7.07;;;2.00;;
74213;SDS011;62576;55.694;37.494;2023-02-15T05:22:54;3.72;;;1.30;;
74213;SDS011;62576;55.694;37.494;2023-02-15T05:25:26;3.25;;;1.40;;
74213;SDS011;62576;55.694;37.494;2023-02-15T05:28:14;3.53;;;1.20;;
74213;SDS011;62576;55.694;37.494;2023-02-15T05:31:01;5.40;;;1.40;;
74213;SDS011;62576;55.694;37.494;2023-02-15T05:33:33;5.25;;;1.50;;
74213;SDS011;62576;55.694;37.494;2023-02-15T05:36:04;6.28;;;1.80;;
74213;SDS011;62576;55.694;37.494;2023-02-15T05:38:35;3.05;;;1.50;;
74213;SDS011;62576;55.694;37.494;2023-02-15T05:41:07;3.67;;;1.38;;
74213;SDS011;62576;55.694;37.494;2023-02-15T05:43:38;5.30;;;1.70;;
74213;SDS011;62576;55.694;37.494;2023-02-15T05:46:09;4.35;;;1.40;;
74213;SDS011;62576;55.694;37.494;2023-02-15T05:48:36;5.93;;;1.73;;
74213;SDS011;62576;55.694;37.494;2023-02-15T05:51:06;5.50;;;1.55;;
74213;SDS011;62576;55.694;37.494;2023-02-15T05:53:38;5.63;;;1.52;;
74213;SDS011;62576;55.694;37.494;2023-02-15T05:56:11;4.20;;;1.60;;
74213;SDS011;62576;55.694;37.494;2023-02-15T05:58:41;5.45;;;1.80;;
74213;SDS011;62576;55.694;37.494;2023-02-15T06:01:09;7.13;;;1.50;;
74213;SDS011;62576;55.694;37.494;2023-02-15T06:03:40;7.25;;;2.00;;
74213;SDS011;62576;55.694;37.494;2023-02-15T06:06:11;6.30;;;1.80;;
74213;SDS011;62576;55.694;37.494;2023-02-15T06:08:41;4.60;;;1.35;;
74213;SDS011;62576;55.694;37.494;2023-02-15T06:11:13;6.00;;;1.98;;
74213;SDS011;62576;55.694;37.494;2023-02-15T06:13:46;5.63;;;2.17;;
74213;SDS011;62576;55.694;37.494;2023-02-15T06:16:16;7.55;;;2.10;;
74213;SDS011;62576;55.694;37.494;2023-02-15T06:18:46;9.57;;;2.60;;
74213;SDS011;62576;55.694;37.494;2023-02-15T06:21:16;8.38;;;2.17;;
74213;SDS011;62576;55.694;37.494;2023-02-15T06:23:46;9.45;;;2.38;;
74213;SDS011;62576;55.694;37.494;2023-02-15T06:26:17;13.63;;;2.20;;
74213;SDS011;62576;55.694;37.494;2023-02-15T06:28:48;5.35;;;2.00;;
74213;SDS011;62576;55.694;37.494;2023-02-15T06:31:18;8.65;;;2.40;;
74213;SDS011;62576;55.694;37.494;2023-02-15T06:33:48;7.50;;;2.00;;
74213;SDS011;62576;55.694;37.494;2023-02-15T06:36:19;8.00;;;2.33;;
74213;SDS011;62576;55.694;37.494;2023-02-15T06:38:49;5.82;;;1.90;;
74213;SDS011;62576;55.694;37.494;2023-02-15T06:41:21;8.15;;;2.08;;
74213;SDS011;62576;55.694;37.494;2023-02-15T06:43:51;7.60;;;2.35;;
74213;SDS011;62576;55.694;37.494;2023-02-15T06:46:21;8.38;;;2.85;;
74213;SDS011;62576;55.694;37.494;2023-02-15T06:48:51;7.45;;;2.45;;
74213;SDS011;62576;55.694;37.494;2023-02-15T06:51:22;5.07;;;1.83;;
74213;SDS011;62576;55.694;37.494;2023-02-15T06:53:53;7.00;;;2.30;;
74213;SDS011;62576;55.694;37.494;2023-02-15T06:56:25;8.88;;;2.13;;
74213;SDS011;62576;55.694;37.494;2023-02-15T06:58:55;7.68;;;1.70;;
74213;SDS011;62576;55.694;37.494;2023-02-15T07:01:23;5.53;;;1.60;;
74213;SDS011;62576;55.694;37.494;2023-02-15T07:03:53;4.85;;;1.38;;
74213;SDS011;62576;55.694;37.494;2023-02-15T07:06:23;6.18;;;2.08;;
74213;SDS011;62576;55.694;37.494;2023-02-15T07:08:53;7.70;;;2.33;;
74213;SDS011;62576;55.694;37.494;2023-02-15T07:11:26;8.98;;;2.10;;
74213;SDS011;62576;55.694;37.494;2023-02-15T07:14:14;4.15;;;1.58;;
74213;SDS011;62576;55.694;37.494;2023-02-15T07:16:44;7.88;;;2.35;;
74213;SDS011;62576;55.694;37.494;2023-02-15T07:19:14;4.93;;;1.80;;
74213;SDS011;62576;55.694;37.494;2023-02-15T07:21:45;4.90;;;1.90;;
74213;SDS011;62576;55.694;37.494;2023-02-15T07:24:15;4.03;;;1.65;;
74213;SDS011;62576;55.694;37.494;2023-02-15T07:26:46;6.15;;;2.28;;
74213;SDS011;62576;55.694;37.494;2023-02-15T07:29:16;8.40;;;1.95;;
74213;SDS011;62576;55.694;37.494;2023-02-15T07:31:47;6.10;;;1.67;;
74213;SDS011;62576;55.694;37.494;2023-02-15T07:34:17;6.38;;;1.70;;
74213;SDS011;62576;55.694;37.494;2023-02-15T07:36:47;5.75;;;1.92;;
74213;SDS011;62576;55.694;37.494;2023-02-15T07:39:20;7.55;;;2.42;;
74213;SDS011;62576;55.694;37.494;2023-02-15T07:41:52;5.45;;;1.90;;
74213;SDS011;62576;55.694;37.494;2023-02-15T07:44:22;9.63;;;2.42;;
74213;SDS011;62576;55.694;37.494;2023-02-15T07:46:53;6.20;;;2.03;;
74213;SDS011;62576;55.694;37.494;2023-02-15T07:49:23;7.88;;;1.92;;
74213;SDS011;62576;55.694;37.494;2023-02-15T07:51:54;8.23;;;2.95;;
74213;SDS011;62576;55.694;37.494;2023-02-15T07:54:24;7.10;;;2.30;;
74213;SDS011;62576;55.694;37.494;2023-02-15T07:56:55;7.43;;;2.38;;
74213;SDS011;62576;55.694;37.494;2023-02-15T07:59:25;7.82;;;2.40;;
74213;SDS011;62576;55.694;37.494;2023-02-15T08:01:58;6.60;;;2.63;;
74213;SDS011;62576;55.694;37.494;2023-02-15T08:04:28;6.32;;;2.08;;
74213;SDS011;62576;55.694;37.494;2023-02-15T08:06:59;9.50;;;2.97;;
74213;SDS011;62576;55.694;37.494;2023-02-15T08:09:30;8.73;;;2.40;;
74213;SDS011;62576;55.694;37.494;2023-02-15T08:12:05;5.28;;;2.13;;
74213;SDS011;62576;55.694;37.494;2023-02-15T08:14:36;8.02;;;2.20;;
74213;SDS011;62576;55.694;37.494;2023-02-15T08:17:06;8.52;;;2.38;;
74213;SDS011;62576;55.694;37.494;2023-02-15T08:19:36;7.63;;;2.55;;
74213;SDS011;62576;55.694;37.494;2023-02-15T08:22:07;8.90;;;2.45;;
74213;SDS011;62576;55.694;37.494;2023-02-15T08:24:41;5.43;;;2.17;;
74213;SDS011;62576;55.694;37.494;2023-02-15T08:27:13;7.85;;;1.88;;
74213;SDS011;62576;55.694;37.494;2023-02-15T08:29:45;3.83;;;1.63;;
74213;SDS011;62576;55.694;37.494;2023-02-15T08:32:15;6.90;;;1.95;;
74213;SDS011;62576;55.694;37.494;2023-02-15T08:34:45;7.00;;;2.20;;
74213;SDS011;62576;55.694;37.494;2023-02-15T08:37:17;6.55;;;2.33;;
74213;SDS011;62576;55.694;37.494;2023-02-15T08:39:48;9.48;;;2.00;;
74213;SDS011;62576;55.694;37.494;2023-02-15T08:42:20;4.85;;;1.75;;
74213;SDS011;62576;55.694;37.494;2023-02-15T08:44:50;8.65;;;2.53;;
74213;SDS011;62576;55.694;37.494;2023-02-15T08:47:20;5.60;;;1.90;;
74213;SDS011;62576;55.694;37.494;2023-02-15T08:49:50;5.05;;;2.10;;
74213;SDS011;62576;55.694;37.494;2023-02-15T08:52:20;4.68;;;2.08;;
74213;SDS011;62576;55.694;37.494;2023-02-15T08:54:51;6.13;;;1.83;;
74213;SDS011;62576;55.694;37.494;2023-02-15T08:57:22;6.95;;;2.60;;
74213;SDS011;62576;55.694;37.494;2023-02-15T08:59:53;7.95;;;2.40;;
74213;SDS011;62576;55.694;37.494;2023-02-15T09:02:23;11.18;;;1.95;;
74213;SDS011;62576;55.694;37.494;2023-02-15T09:04:53;7.15;;;2.33;;
74213;SDS011;62576;55.694;37.494;2023-02-15T09:07:26;5.38;;;2.50;;
74213;SDS011;62576;55.694;37.494;2023-02-15T09:09:56;6.25;;;2.13;;
74213;SDS011;62576;55.694;37.494;2023-02-15T09:12:30;6.20;;;1.70;;
74213;SDS011;62576;55.694;37.494;2023-02-15T09:15:00;4.13;;;1.58;;
74213;SDS011;62576;55.694;37.494;2023-02-15T09:17:30;2.90;;;1.50;;
74213;SDS011;62576;55.694;37.494;2023-02-15T09:20:00;4.43;;;1.60;;
74213;SDS011;62576;55.694;37.494;2023-02-15T09:22:31;7.28;;;1.92;;
74213;SDS011;62576;55.694;37.494;2023-02-15T09:25:01;6.82;;;2.17;;
74213;SDS011;62576;55.694;37.494;2023-02-15T09:27:33;5.57;;;1.67;;
74213;SDS011;62576;55.694;37.494;2023-02-15T09:30:10;5.78;;;1.83;;
74213;SDS011;62576;55.694;37.494;2023-02-15T09:32:41;4.53;;;2.03;;
74213;SDS011;62576;55.694;37.494;2023-02-15T09:35:11;4.22;;;2.10;;
74213;SDS011;62576;55.694;37.494;2023-02-15T09:37:42;6.43;;;2.10;;
74213;SDS011;62576;55.694;37.494;2023-02-15T09:40:13;4.50;;;1.70;;
74213;SDS011;62576;55.694;37.494;2023-02-15T09:45:54;6.07;;;1.92;;
74213;SDS011;62576;55.694;37.494;2023-02-15T09:48:40;8.05;;;2.20;;
74213;SDS011;62576;55.694;37.494;2023-02-15T09:51:17;6.20;;;1.90;;
74213;SDS011;62576;55.694;37.494;2023-02-15T09:54:14;4.80;;;1.90;;
74213;SDS011;62576;55.694;37.494;2023-02-15T09:56:57;5.43;;;2.00;;
74213;SDS011;62576;55.694;37.494;2023-02-15T09:59:38;3.92;;;1.60;;
74213;SDS011;62576;55.694;37.494;2023-02-15T10:02:21;6.53;;;1.90;;
74213;SDS011;62576;55.694;37.494;2023-02-15T10:05:08;5.80;;;1.83;;
74213;SDS011;62576;55.694;37.494;2023-02-15T10:07:58;5.15;;;1.90;;
74213;SDS011;62576;55.694;37.494;2023-02-15T10:10:47;5.32;;;1.92;;
74213;SDS011;62576;55.694;37.494;2023-02-15T10:13:48;5.63;;;1.98;;
74213;SDS011;62576;55.694;37.494;2023-02-15T10:16:28;4.80;;;1.85;;
74213;SDS011;62576;55.694;37.494;2023-02-15T10:19:08;4.10;;;1.60;;
74213;SDS011;62576;55.694;37.494;2023-02-15T10:21:46;4.60;;;1.85;;
74213;SDS011;62576;55.694;37.494;2023-02-15T10:27:26;5.25;;;1.80;;
74213;SDS011;62576;55.694;37.494;2023-02-15T10:30:03;6.18;;;1.75;;
74213;SDS011;62576;55.694;37.494;2023-02-15T10:32:42;6.75;;;1.88;;
74213;SDS011;62576;55.694;37.494;2023-02-15T10:35:20;5.63;;;1.88;;
74213;SDS011;62576;55.694;37.494;2023-02-15T10:38:05;6.25;;;1.48;;
74213;SDS011;62576;55.694;37.494;2023-02-15T10:40:46;5.40;;;1.70;;
74213;SDS011;62576;55.694;37.494;2023-02-15T10:43:34;4.28;;;1.70;;
74213;SDS011;62576;55.694;37.494;2023-02-15T10:46:17;7.35;;;2.00;;
74213;SDS011;62576;55.694;37.494;2023-02-15T10:49:11;5.10;;;1.85;;
74213;SDS011;62576;55.694;37.494;2023-02-15T10:51:58;3.58;;;1.35;;
74213;SDS011;62576;55.694;37.494;2023-02-15T10:54:44;4.68;;;1.88;;
74213;SDS011;62576;55.694;37.494;2023-02-15T10:57:19;5.47;;;1.70;;
74213;SDS011;62576;55.694;37.494;2023-02-15T10:59:59;5.80;;;1.65;;
74213;SDS011;62576;55.694;37.494;2023-02-15T11:05:48;7.15;;;1.60;;
74213;SDS011;62576;55.694;37.494;2023-02-15T11:08:29;5.15;;;1.48;;
74213;SDS011;62576;55.694;37.494;2023-02-15T11:11:04;3.65;;;1.65;;
74213;SDS011;62576;55.694;37.494;2023-02-15T11:13:38;2.88;;;1.48;;
74213;SDS011;62576;55.694;37.494;2023-02-15T11:16:12;5.72;;;1.45;;
74213;SDS011;62576;55.694;37.494;2023-02-15T11:18:46;4.63;;;1.55;;
74213;SDS011;62576;55.694;37.494;2023-02-15T11:21:24;3.83;;;1.60;;
74213;SDS011;62576;55.694;37.494;2023-02-15T11:23:58;3.70;;;1.35;;
74213;SDS011;62576;55.694;37.494;2023-02-15T11:26:31;4.82;;;1.70;;
74213;SDS011;62576;55.694;37.494;2023-02-15T11:29:06;5.72;;;1.77;;
74213;SDS011;62576;55.694;37.494;2023-02-15T11:31:45;7.60;;;2.10;;
74213;SDS011;62576;55.694;37.494;2023-02-15T11:34:20;5.45;;;1.60;;
74213;SDS011;62576;55.694;37.494;2023-02-15T11:36:58;3.75;;;1.70;;
74213;SDS011;62576;55.694;37.494;2023-02-15T11:39:32;4.55;;;1.60;;
74213;SDS011;62576;55.694;37.494;2023-02-15T11:42:06;4.80;;;1.83;;
74213;SDS011;62576;55.694;37.494;2023-02-15T11:44:45;5.35;;;1.67;;
74213;SDS011;62576;55.694;37.494;2023-02-15T11:47:22;3.65;;;1.38;;
74213;SDS011;62576;55.694;37.494;2023-02-15T11:49:53;2.63;;;1.42;;
74213;SDS011;62576;55.694;37.494;2023-02-15T11:52:25;2.78;;;1.48;;
74213;SDS011;62576;55.694;37.494;2023-02-15T11:54:57;4.97;;;1.85;;
74213;SDS011;62576;55.694;37.494;2023-02-15T11:57:28;3.92;;;1.95;;
74213;SDS011;62576;55.694;37.494;2023-02-15T12:00:10;5.22;;;1.60;;
74213;SDS011;62576;55.694;37.494;2023-02-15T12:02:46;4.80;;;2.08;;
74213;SDS011;62576;55.694;37.494;2023-02-15T12:05:23;6.60;;;1.58;;
74213;SDS011;62576;55.694;37.494;2023-02-15T12:07:57;5.45;;;1.38;;
74213;SDS011;62576;55.694;37.494;2023-02-15T12:10:33;3.55;;;1.60;;
74213;SDS011;62576;55.694;37.494;2023-02-15T12:13:08;4.13;;;1.88;;
74213;SDS011;62576;55.694;37.494;2023-02-15T12:15:40;5.05;;;1.40;;
74213;SDS011;62576;55.694;37.494;2023-02-15T12:18:17;4.30;;;1.90;;
74213;SDS011;62576;55.694;37.494;2023-02-15T12:20:52;3.30;;;1.73;;
74213;SDS011;62576;55.694;37.494;2023-02-15T12:23:24;4.30;;;1.63;;
74213;SDS011;62576;55.694;37.494;2023-02-15T12:25:58;5.78;;;1.90;;
74213;SDS011;62576;55.694;37.494;2023-02-15T12:28:31;5.25;;;1.33;;
74213;SDS011;62576;55.694;37.494;2023-02-15T12:31:07;6.15;;;1.60;;
74213;SDS011;62576;55.694;37.494;2023-02-15T12:33:48;2.47;;;1.33;;
74213;SDS011;62576;55.694;37.494;2023-02-15T12:36:22;4.30;;;1.45;;
74213;SDS011;62576;55.694;37.494;2023-02-15T12:39:05;6.32;;;1.80;;
74213;SDS011;62576;55.694;37.494;2023-02-15T12:41:57;4.93;;;1.85;;
74213;SDS011;62576;55.694;37.494;2023-02-15T12:44:30;3.78;;;1.33;;
74213;SDS011;62576;55.694;37.494;2023-02-15T12:47:02;5.28;;;1.58;;
74213;SDS011;62576;55.694;37.494;2023-02-15T12:49:35;3.80;;;1.48;;
74213;SDS011;62576;55.694;37.494;2023-02-15T12:52:22;4.03;;;1.40;;
74213;SDS011;62576;55.694;37.494;2023-02-15T12:54:56;4.60;;;1.17;;
74213;SDS011;62576;55.694;37.494;2023-02-15T12:57:48;6.32;;;1.88;;
74213;SDS011;62576;55.694;37.494;2023-02-15T13:00:26;4.57;;;1.10;;
74213;SDS011;62576;55.694;37.494;2023-02-15T13:02:59;3.40;;;1.30;;
74213;SDS011;62576;55.694;37.494;2023-02-15T13:05:31;3.25;;;1.33;;
74213;SDS011;62576;55.694;37.494;2023-02-15T13:08:09;4.10;;;1.40;;
74213;SDS011;62576;55.694;37.494;2023-02-15T13:10:52;4.00;;;1.60;;
74213;SDS011;62576;55.694;37.494;2023-02-15T13:13:24;3.45;;;1.30;;
74213;SDS011;62576;55.694;37.494;2023-02-15T13:15:58;3.40;;;1.20;;
74213;SDS011;62576;55.694;37.494;2023-02-15T13:18:30;2.75;;;1.00;;
74213;SDS011;62576;55.694;37.494;2023-02-15T13:21:05;3.78;;;1.60;;
74213;SDS011;62576;55.694;37.494;2023-02-15T13:23:41;2.00;;;1.15;;
74213;SDS011;62576;55.694;37.494;2023-02-15T13:26:18;3.40;;;1.10;;
74213;SDS011;62576;55.694;37.494;2023-02-15T13:28:52;2.45;;;1.20;;
74213;SDS011;62576;55.694;37.494;2023-02-15T13:31:26;3.60;;;1.35;;
74213;SDS011;62576;55.694;37.494;2023-02-15T13:34:01;2.42;;;1.13;;
74213;SDS011;62576;55.694;37.494;2023-02-15T13:36:42;2.88;;;1.40;;
74213;SDS011;62576;55.694;37.494;2023-02-15T13:39:21;3.88;;;1.25;;
74213;SDS011;62576;55.694;37.494;2023-02-15T13:42:04;4.90;;;1.10;;
74213;SDS011;62576;55.694;37.494;2023-02-15T13:44:52;4.50;;;1.33;;
74213;SDS011;62576;55.694;37.494;2023-02-15T13:47:32;1.95;;;1.08;;
74213;SDS011;62576;55.694;37.494;2023-02-15T13:53:10;3.17;;;1.25;;
74213;SDS011;62576;55.694;37.494;2023-02-15T13:55:57;4.88;;;1.48;;
74213;SDS011;62576;55.694;37.494;2023-02-15T13:58:39;3.92;;;1.33;;
74213;SDS011;62576;55.694;37.494;2023-02-15T14:01:24;3.83;;;1.30;;
74213;SDS011;62576;55.694;37.494;2023-02-15T14:07:13;3.05;;;1.10;;
74213;SDS011;62576;55.694;37.494;2023-02-15T14:09:57;3.00;;;1.13;;
74213;SDS011;62576;55.694;37.494;2023-02-15T14:12:50;6.50;;;1.70;;
74213;SDS011;62576;55.694;37.494;2023-02-15T14:15:41;2.80;;;1.30;;
74213;SDS011;62576;55.694;37.494;2023-02-15T14:18:19;3.33;;;1.25;;
74213;SDS011;62576;55.694;37.494;2023-02-15T14:20:59;2.60;;;1.13;;
74213;SDS011;62576;55.694;37.494;2023-02-15T14:23:40;2.10;;;1.10;;
74213;SDS011;62576;55.694;37.494;2023-02-15T14:26:24;3.58;;;1.30;;
74213;SDS011;62576;55.694;37.494;2023-02-15T14:29:05;5.53;;;1.80;;
74213;SDS011;62576;55.694;37.494;2023-02-15T14:31:45;3.45;;;1.40;;
74213;SDS011;62576;55.694;37.494;2023-02-15T14:34:20;1.75;;;1.10;;
74213;SDS011;62576;55.694;37.494;2023-02-15T14:36:55;2.75;;;1.40;;
74213;SDS011;62576;55.694;37.494;2023-02-15T14:39:42;3.15;;;1.48;;
74213;SDS011;62576;55.694;37.494;2023-02-15T14:42:38;3.15;;;1.30;;
74213;SDS011;62576;55.694;37.494;2023-02-15T14:45:17;3.25;;;1.23;;
74213;SDS011;62576;55.694;37.494;2023-02-15T14:47:55;6.10;;;1.65;;
74213;SDS011;62576;55.694;37.494;2023-02-15T14:56:17;2.78;;;1.13;;
74213;SDS011;62576;55.694;37.494;2023-02-15T14:59:01;2.33;;;1.40;;
74213;SDS011;62576;55.694;37.494;2023-02-15T15:04:41;2.58;;;1.02;;
74213;SDS011;62576;55.694;37.494;2023-02-15T15:07:17;2.40;;;0.90;;
74213;SDS011;62576;55.694;37.494;2023-02-15T15:09:58;3.72;;;1.02;;
74213;SDS011;62576;55.694;37.494;2023-02-15T15:12:37;2.63;;;1.40;;
74213;SDS011;62576;55.694;37.494;2023-02-15T15:15:13;4.50;;;1.58;;
74213;SDS011;62576;55.694;37.494;2023-02-15T15:18:05;2.72;;;1.10;;
74213;SDS011;62576;55.694;37.494;2023-02-15T15:20:40;4.90;;;1.75;;
74213;SDS011;62576;55.694;37.494;2023-02-15T15:26:23;2.65;;;0.90;;
74213;SDS011;62576;55.694;37.494;2023-02-15T15:28:58;4.95;;;1.50;;
74213;SDS011;62576;55.694;37.494;2023-02-15T15:31:37;4.43;;;1.27;;
74213;SDS011;62576;55.694;37.494;2023-02-15T15:34:17;3.08;;;1.25;;
74213;SDS011;62576;55.694;37.494;2023-02-15T15:46:38;1.65;;;0.90;;
74213;SDS011;62576;55.694;37.494;2023-02-15T15:49:21;2.40;;;1.30;;
74213;SDS011;62576;55.694;37.494;2023-02-15T15:51:58;3.80;;;1.25;;
74213;SDS011;62576;55.694;37.494;2023-02-15T15:54:31;2.33;;;1.08;;
74213;SDS011;62576;55.694;37.494;2023-02-15T15:57:05;2.30;;;1.20;;
74213;SDS011;62576;55.694;37.494;2023-02-15T15:59:46;3.67;;;1.35;;
74213;SDS011;62576;55.694;37.494;2023-02-15T16:02:18;3.78;;;1.08;;
74213;SDS011;62576;55.694;37.494;2023-02-15T16:04:53;1.70;;;1.00;;
74213;SDS011;62576;55.694;37.494;2023-02-15T16:07:42;3.00;;;1.50;;